Forside
METAR-TAF:

METAR-TAF

Lufthavne :

Payam

Karaj, Iran

Breddekreds: 35-46-34N, længdekreds: 050-49-36E, højde: 1271 m

Aktuelle vejr

Denne rapport blev lavet for 8 timer og 31 minutter siden, kl. 18:00 UTC
Vind stille
Temperatur 6°C
Fugtighed 87%
Tryk 1024 hPa
Sigt: 8000 m
Nogle få skyer i en højde af 3500 ft
Spredte skyer i en højde af 8000 ft

METAR: OIIP 161800Z 00000KT 8000 FEW035 SCT080 06/04 Q1024

Tid: 06:01 (02:31 UTC)


TAF: fraværende

Vejrobservationer og prognoser fra mere end 4000 lufthavne (METAR og TAF).

De gule og røde prikker repræsenterer de meteorologiske stationer.

Flyt musen over at se navnet på stationen.

Så klik over at se vejr observationer og prognoser.

At skifte det kort: Klik på de grønne knapper med et sort kors for at zoome ind; på den grønne knap med en bindestreg for at zoome ud; eller på de grønne pile for tilstødende kort.


METAR-TAF: